createdAt,value
2019-04-16T00:02:10.245Z,21.60
2019-04-16T00:04:17.439Z,21.65
2019-04-16T00:06:19.816Z,21.68
2019-04-16T00:08:27.578Z,21.69
2019-04-16T00:10:24.339Z,21.71
2019-04-16T00:12:26.675Z,21.73
2019-04-16T00:14:28.320Z,21.71
2019-04-16T00:16:29.908Z,21.70
2019-04-16T00:18:31.552Z,21.72
2019-04-16T00:20:36.758Z,21.72
2019-04-16T00:22:38.327Z,21.71
2019-04-16T00:24:39.958Z,21.65
2019-04-16T00:26:41.543Z,21.65
2019-04-16T00:28:43.128Z,21.63
2019-04-16T00:30:44.706Z,21.63
2019-04-16T00:32:46.282Z,21.64
2019-04-16T00:34:47.925Z,21.64
2019-04-16T00:36:49.533Z,21.34
2019-04-16T00:38:53.844Z,21.66
2019-04-16T00:40:52.800Z,21.68
2019-04-16T00:42:54.420Z,21.67
2019-04-16T00:44:56.028Z,21.69
2019-04-16T00:46:57.640Z,21.71
2019-04-16T00:48:59.247Z,21.73
2019-04-16T00:51:00.841Z,21.69
2019-04-16T00:53:02.626Z,21.68
2019-04-16T00:55:04.268Z,21.68
2019-04-16T00:57:06.284Z,21.67
2019-04-16T00:59:07.872Z,21.67
2019-04-16T01:01:09.444Z,21.67
2019-04-16T01:03:11.042Z,21.74
2019-04-16T01:05:12.705Z,21.74
2019-04-16T01:07:14.343Z,21.78
2019-04-16T01:09:15.956Z,21.77
2019-04-16T01:11:17.535Z,21.77
2019-04-16T01:13:21.763Z,21.71
2019-04-16T01:15:20.789Z,21.69
2019-04-16T01:17:22.433Z,21.66
2019-04-16T01:19:24.019Z,21.62
2019-04-16T01:21:25.670Z,21.59
2019-04-16T01:23:27.246Z,21.58
2019-04-16T01:25:28.830Z,21.58
2019-04-16T01:27:30.438Z,21.62
2019-04-16T01:29:33.954Z,21.61
2019-04-16T01:31:39.403Z,21.60
2019-04-16T01:33:50.933Z,21.61
2019-04-16T01:35:52.734Z,21.63
2019-04-16T01:37:59.944Z,21.70
2019-04-16T01:40:05.042Z,21.68
2019-04-16T01:42:06.667Z,21.69
2019-04-16T01:44:08.447Z,21.67
2019-04-16T01:46:09.929Z,21.66
2019-04-16T01:48:11.542Z,21.74
2019-04-16T01:50:14.030Z,21.77
2019-04-16T01:52:18.685Z,21.85
2019-04-16T01:54:16.402Z,21.87
2019-04-16T01:56:18.013Z,21.87
2019-04-16T01:58:19.650Z,21.94
2019-04-16T02:00:21.259Z,21.95
2019-04-16T02:02:22.830Z,21.97
2019-04-16T02:04:24.425Z,21.98
2019-04-16T02:06:26.667Z,21.98
2019-04-16T02:08:28.267Z,21.98
2019-04-16T02:10:29.336Z,22.01
2019-04-16T02:12:30.942Z,22.04
2019-04-16T02:14:32.560Z,22.00
2019-04-16T02:16:34.172Z,22.02
2019-04-16T02:18:35.779Z,22.03
2019-04-16T02:20:39.338Z,22.03
2019-04-16T02:22:39.083Z,22.05
2019-04-16T02:24:40.690Z,22.03
2019-04-16T02:26:42.280Z,22.01
2019-04-16T02:28:43.878Z,21.96
2019-04-16T02:30:45.580Z,21.92
2019-04-16T02:32:47.172Z,21.85
2019-04-16T02:34:48.795Z,21.78
2019-04-16T02:36:50.411Z,21.84
2019-04-16T02:38:53.430Z,21.89
2019-04-16T02:40:53.705Z,21.91
2019-04-16T02:42:55.790Z,21.94
2019-04-16T02:44:57.413Z,22.02
2019-04-16T02:47:05.020Z,22.07
2019-04-16T02:49:00.662Z,22.11
2019-04-16T02:51:15.023Z,22.12
2019-04-16T02:53:24.565Z,22.13
2019-04-16T02:55:43.916Z,22.14
2019-04-16T02:57:41.145Z,22.12
2019-04-16T02:59:47.227Z,22.16
2019-04-16T03:02:01.470Z,22.16
2019-04-16T03:04:03.751Z,22.08
2019-04-16T03:06:05.351Z,22.07
2019-04-16T03:08:06.980Z,22.06
2019-04-16T03:10:12.035Z,22.04
2019-04-16T03:12:10.278Z,22.04
2019-04-16T03:14:11.915Z,22.07
2019-04-16T03:16:13.544Z,22.05
2019-04-16T03:18:16.226Z,22.07
2019-04-16T03:20:20.660Z,22.06
2019-04-16T03:22:19.590Z,22.10
2019-04-16T03:24:21.196Z,22.12
2019-04-16T03:26:22.844Z,22.14
2019-04-16T03:28:27.332Z,22.14
2019-04-16T03:30:26.138Z,22.14
2019-04-16T03:32:33.217Z,22.16
2019-04-16T03:34:29.424Z,22.17
2019-04-16T03:36:31.020Z,21.91
2019-04-16T03:38:36.726Z,22.21
2019-04-16T03:40:34.299Z,22.21
2019-04-16T03:42:35.908Z,22.20
2019-04-16T03:44:37.612Z,22.21
2019-04-16T03:46:40.200Z,22.19
2019-04-16T03:48:40.823Z,22.26
2019-04-16T03:50:42.468Z,22.29
2019-04-16T03:52:45.734Z,22.30
2019-04-16T03:54:45.708Z,22.38
2019-04-16T03:56:47.319Z,22.34
2019-04-16T03:58:48.933Z,22.32
2019-04-16T04:00:50.588Z,22.34
2019-04-16T04:02:55.147Z,22.35
2019-04-16T04:04:53.823Z,22.32
2019-04-16T04:06:55.472Z,22.29
2019-04-16T04:08:57.060Z,22.28
2019-04-16T04:10:58.653Z,22.29
2019-04-16T04:13:00.278Z,22.25
2019-04-16T04:15:01.864Z,22.19
2019-04-16T04:17:06.662Z,22.19
2019-04-16T04:19:05.064Z,22.14
2019-04-16T04:21:06.662Z,22.10
2019-04-16T04:23:08.521Z,22.05
2019-04-16T04:25:09.953Z,22.05
2019-04-16T04:27:14.444Z,22.11
2019-04-16T04:29:13.236Z,22.12
2019-04-16T04:31:14.828Z,22.13
2019-04-16T04:33:22.137Z,22.17
2019-04-16T04:35:23.726Z,22.22
2019-04-16T04:37:25.336Z,22.20
2019-04-16T04:39:26.980Z,22.20
2019-04-16T04:41:28.608Z,22.23
2019-04-16T04:43:31.913Z,22.23
2019-04-16T04:45:31.920Z,22.24
2019-04-16T04:47:33.527Z,22.24
2019-04-16T04:49:35.156Z,22.27
2019-04-16T04:51:42.522Z,22.29
2019-04-16T04:53:38.424Z,22.31
2019-04-16T04:55:40.027Z,22.33
2019-04-16T04:57:41.611Z,22.34
2019-04-16T04:59:43.221Z,22.35
2019-04-16T05:01:44.808Z,22.38
2019-04-16T05:03:52.236Z,22.43
2019-04-16T05:05:59.508Z,22.50
2019-04-16T05:08:01.118Z,22.59
2019-04-16T05:10:04.548Z,22.62
2019-04-16T05:12:07.708Z,22.59
2019-04-16T05:14:06.020Z,22.57
2019-04-16T05:16:07.652Z,22.57
2019-04-16T05:18:10.819Z,22.56
2019-04-16T05:20:14.850Z,22.53
2019-04-16T05:22:12.628Z,22.53
2019-04-16T05:24:14.244Z,22.52
2019-04-16T05:26:15.842Z,22.52
2019-04-16T05:28:17.415Z,22.51
2019-04-16T05:30:21.057Z,22.48
2019-04-16T05:32:20.673Z,22.49
2019-04-16T05:34:22.272Z,22.51
2019-04-16T05:36:23.883Z,22.48
2019-04-16T05:38:25.494Z,22.49
2019-04-16T05:40:28.062Z,22.53
2019-04-16T05:42:28.759Z,22.52
2019-04-16T05:44:32.793Z,22.47
2019-04-16T05:46:32.000Z,22.47
2019-04-16T05:48:33.632Z,22.52
2019-04-16T05:50:35.235Z,22.49
2019-04-16T05:52:36.833Z,22.57
2019-04-16T05:54:41.416Z,22.40
2019-04-16T05:56:59.423Z,22.34
2019-04-16T05:59:02.726Z,22.30
2019-04-16T06:01:14.147Z,22.28
2019-04-16T06:03:15.274Z,22.22
2019-04-16T06:05:16.892Z,22.17
2019-04-16T06:07:18.515Z,22.13
2019-04-16T06:09:20.176Z,22.12
2019-04-16T06:11:29.884Z,22.13
2019-04-16T06:13:37.265Z,22.12
2019-04-16T06:15:54.500Z,22.08
2019-04-16T06:18:02.442Z,22.04
2019-04-16T06:20:07.334Z,22.03
2019-04-16T06:22:11.539Z,22.04
2019-04-16T06:24:18.798Z,22.07
2019-04-16T06:26:26.176Z,22.05
2019-04-16T06:28:35.248Z,22.06
2019-04-16T06:30:54.476Z,22.04
2019-04-16T06:32:57.864Z,22.02
2019-04-16T06:35:11.106Z,22.02
2019-04-16T06:37:12.727Z,22.00
2019-04-16T06:39:18.959Z,22.00
2019-04-16T06:41:26.191Z,21.97
2019-04-16T06:43:27.893Z,21.95
2019-04-16T06:45:30.382Z,21.93
2019-04-16T06:47:41.831Z,21.92
2019-04-16T06:49:54.892Z,21.88
2019-04-16T06:52:02.249Z,21.85
2019-04-16T06:54:11.067Z,21.83
2019-04-16T06:56:21.969Z,21.80
2019-04-16T06:58:28.003Z,21.49
2019-04-16T07:00:35.237Z,21.77
2019-04-16T07:02:43.141Z,21.74
2019-04-16T07:04:41.227Z,21.69
2019-04-16T07:06:44.668Z,21.64
2019-04-16T07:09:01.387Z,21.61
2019-04-16T07:11:03.292Z,21.56
2019-04-16T07:13:09.946Z,21.52
2019-04-16T07:15:06.540Z,21.50
2019-04-16T07:17:08.471Z,21.49
2019-04-16T07:19:11.336Z,21.50
2019-04-16T07:21:14.481Z,21.51
2019-04-16T07:23:13.384Z,21.63
2019-04-16T07:25:15.367Z,21.89
2019-04-16T07:27:20.049Z,21.80
2019-04-16T07:29:22.173Z,20.44
2019-04-16T07:31:33.552Z,20.08
2019-04-16T07:33:30.117Z,20.15
2019-04-16T07:35:46.639Z,20.12
2019-04-16T07:37:49.087Z,20.02
2019-04-16T07:40:09.977Z,20.17
2019-04-16T07:42:14.134Z,20.32
2019-04-16T07:44:15.085Z,20.41
2019-04-16T07:46:36.483Z,20.61
2019-04-16T07:48:38.565Z,20.76
2019-04-16T07:50:52.964Z,20.72
2019-04-16T07:53:03.001Z,21.10
2019-04-16T07:55:10.552Z,21.35
2019-04-16T07:57:12.019Z,21.38
2019-04-16T07:59:13.603Z,21.65
2019-04-16T08:01:16.493Z,21.67
2019-04-16T08:03:16.856Z,21.79
2019-04-16T08:05:18.463Z,21.85
2019-04-16T08:07:21.213Z,21.88
2019-04-16T08:09:21.694Z,21.99
2019-04-16T08:11:23.318Z,21.91
2019-04-16T08:13:24.924Z,22.02
2019-04-16T08:15:26.545Z,22.00
2019-04-16T08:17:28.135Z,21.95
2019-04-16T08:19:36.876Z,22.07
2019-04-16T08:21:31.360Z,22.12
2019-04-16T08:23:33.879Z,22.08
2019-04-16T08:25:35.518Z,21.85
2019-04-16T08:27:37.108Z,21.67
2019-04-16T08:29:38.722Z,22.29
2019-04-16T08:31:40.887Z,22.76
2019-04-16T08:33:42.081Z,22.63
2019-04-16T08:35:43.704Z,22.68
2019-04-16T08:37:49.306Z,22.46
2019-04-16T08:39:46.989Z,22.46
2019-04-16T08:41:52.061Z,22.34
2019-04-16T08:43:50.276Z,22.66
2019-04-16T08:45:51.847Z,22.61
2019-04-16T08:47:53.436Z,22.39
2019-04-16T08:49:55.041Z,22.80
2019-04-16T08:51:56.671Z,22.93
2019-04-16T08:53:58.526Z,23.02
2019-04-16T08:55:59.933Z,23.05
2019-04-16T08:58:06.076Z,22.21
2019-04-16T09:00:03.232Z,22.51
2019-04-16T09:02:05.100Z,23.07
2019-04-16T09:04:06.738Z,23.30
2019-04-16T09:06:13.040Z,23.27
2019-04-16T09:08:21.814Z,23.26
2019-04-16T09:10:23.255Z,23.55
2019-04-16T09:12:19.958Z,23.53
2019-04-16T09:14:25.415Z,23.22
2019-04-16T09:16:23.198Z,22.97
2019-04-16T09:18:30.559Z,22.86
2019-04-16T09:20:34.771Z,22.78
2019-04-16T09:22:47.832Z,22.77
2019-04-16T09:24:40.529Z,22.74
2019-04-16T09:26:37.111Z,22.70
2019-04-16T09:28:44.654Z,22.59
2019-04-16T09:31:01.177Z,22.61
2019-04-16T09:33:04.682Z,22.60
2019-04-16T09:35:10.989Z,22.60
2019-04-16T09:37:16.180Z,22.59
2019-04-16T09:39:28.545Z,22.54
2019-04-16T09:41:30.142Z,22.55
2019-04-16T09:43:42.465Z,22.52
2019-04-16T09:45:44.065Z,22.50
2019-04-16T09:47:45.676Z,22.57
2019-04-16T09:49:47.266Z,22.66
2019-04-16T09:51:50.422Z,22.76
2019-04-16T09:53:50.601Z,22.80
2019-04-16T09:55:52.235Z,22.82
2019-04-16T09:57:53.814Z,22.83
2019-04-16T09:59:57.911Z,22.84
2019-04-16T10:01:59.551Z,22.86
2019-04-16T10:04:01.159Z,22.89
2019-04-16T10:06:05.309Z,22.88
2019-04-16T10:08:04.439Z,22.87
2019-04-16T10:10:06.030Z,22.88
2019-04-16T10:12:08.579Z,22.87
2019-04-16T10:14:09.340Z,22.88
2019-04-16T10:16:13.579Z,22.89
2019-04-16T10:18:12.600Z,22.87
2019-04-16T10:20:14.208Z,22.82
2019-04-16T10:22:15.860Z,22.87
2019-04-16T10:24:23.193Z,22.80
2019-04-16T10:26:24.765Z,22.42
2019-04-16T10:28:26.940Z,22.63
2019-04-16T10:30:30.207Z,22.58
2019-04-16T10:32:30.400Z,22.53
2019-04-16T10:34:31.991Z,22.51
2019-04-16T10:36:37.094Z,22.49
2019-04-16T10:38:41.289Z,22.48
2019-04-16T10:40:42.983Z,22.48
2019-04-16T10:42:49.619Z,22.56
2019-04-16T10:44:57.800Z,22.50
2019-04-16T10:47:00.380Z,22.31
2019-04-16T10:49:17.744Z,22.41
2019-04-16T10:51:19.386Z,22.38
2019-04-16T10:53:21.942Z,22.37
2019-04-16T10:55:25.472Z,22.21
2019-04-16T10:57:33.881Z,22.35
2019-04-16T10:59:35.460Z,22.35
2019-04-16T11:01:37.572Z,22.34
2019-04-16T11:03:43.063Z,22.31
2019-04-16T11:05:45.301Z,22.34
2019-04-16T11:07:47.452Z,22.36
2019-04-16T11:09:49.100Z,22.36
2019-04-16T11:11:50.711Z,22.34
2019-04-16T11:13:59.650Z,22.36
2019-04-16T11:15:53.982Z,22.37
2019-04-16T11:17:55.602Z,22.42
2019-04-16T11:20:00.034Z,22.63
2019-04-16T11:21:59.942Z,22.65
2019-04-16T11:24:00.742Z,22.67
2019-04-16T11:26:02.707Z,22.61
2019-04-16T11:28:04.051Z,22.60
2019-04-16T11:30:05.761Z,22.62
2019-04-16T11:32:07.415Z,22.63
2019-04-16T11:34:09.096Z,22.62
2019-04-16T11:36:19.515Z,22.63
2019-04-16T11:38:12.349Z,22.62
2019-04-16T11:40:14.019Z,22.61
2019-04-16T11:42:15.632Z,22.62
2019-04-16T11:44:17.506Z,22.61
2019-04-16T11:46:19.056Z,22.59
2019-04-16T11:48:20.621Z,22.57
2019-04-16T11:50:22.277Z,22.56
2019-04-16T11:52:23.893Z,22.56
2019-04-16T11:54:25.503Z,22.57
2019-04-16T11:56:27.128Z,22.56
2019-04-16T11:58:32.654Z,22.53
2019-04-16T12:00:54.182Z,22.51
2019-04-16T12:03:01.496Z,22.49
2019-04-16T12:05:04.007Z,22.48
2019-04-16T12:07:15.556Z,22.47
2019-04-16T12:09:35.087Z,22.49
2019-04-16T12:11:42.377Z,22.46
2019-04-16T12:13:49.785Z,22.46
2019-04-16T12:16:06.337Z,22.45
2019-04-16T12:18:08.146Z,22.45
2019-04-16T12:20:13.604Z,22.45
2019-04-16T12:22:25.053Z,22.44
2019-04-16T12:24:30.154Z,22.43
2019-04-16T12:26:35.391Z,22.44
2019-04-16T12:28:56.820Z,22.44
2019-04-16T12:31:02.044Z,22.44
2019-04-16T12:33:08.799Z,22.42
2019-04-16T12:35:08.771Z,22.41
2019-04-16T12:37:12.991Z,22.27
2019-04-16T12:39:26.279Z,22.38
2019-04-16T12:41:48.926Z,22.37
2019-04-16T12:44:09.577Z,22.36
2019-04-16T12:46:15.175Z,22.34
2019-04-16T12:48:21.399Z,22.34
2019-04-16T12:50:28.908Z,22.33
2019-04-16T12:52:31.109Z,22.34
2019-04-16T12:54:48.414Z,22.32
2019-04-16T12:57:10.660Z,22.33
2019-04-16T12:59:13.843Z,22.20
2019-04-16T13:01:19.558Z,22.35
2019-04-16T13:03:26.188Z,22.37
2019-04-16T13:05:27.770Z,22.38
2019-04-16T13:07:29.855Z,22.36
2019-04-16T13:09:32.318Z,22.37
2019-04-16T13:11:35.007Z,22.36
2019-04-16T13:13:52.374Z,22.34
2019-04-16T13:16:03.877Z,22.32
2019-04-16T13:18:10.171Z,22.28
2019-04-16T13:20:30.146Z,22.27
2019-04-16T13:22:31.156Z,22.24
2019-04-16T13:24:32.738Z,22.22
2019-04-16T13:26:35.108Z,22.20
2019-04-16T13:28:36.709Z,22.17
2019-04-16T13:30:38.339Z,22.16
2019-04-16T13:32:39.924Z,22.13
2019-04-16T13:34:41.500Z,22.10
2019-04-16T13:36:43.098Z,22.08
2019-04-16T13:38:48.635Z,22.05
2019-04-16T13:40:52.945Z,22.02
2019-04-16T13:42:51.888Z,22.00
2019-04-16T13:44:53.547Z,21.97
2019-04-16T13:46:55.147Z,21.94
2019-04-16T13:48:59.685Z,21.91
2019-04-16T13:51:00.048Z,21.88
2019-04-16T13:53:04.180Z,21.83
2019-04-16T13:55:11.592Z,21.80
2019-04-16T13:57:14.741Z,21.78
2019-04-16T13:59:22.105Z,21.76
2019-04-16T14:01:26.604Z,21.74
2019-04-16T14:03:28.192Z,21.71
2019-04-16T14:05:29.846Z,21.69
2019-04-16T14:07:31.456Z,21.68
2019-04-16T14:09:34.887Z,21.66
2019-04-16T14:11:39.667Z,21.63
2019-04-16T14:13:41.998Z,21.63
2019-04-16T14:15:44.916Z,21.62
2019-04-16T14:17:52.162Z,21.61
2019-04-16T14:19:46.804Z,21.60
2019-04-16T14:21:48.428Z,21.58
2019-04-16T14:23:50.003Z,21.58
2019-04-16T14:25:51.663Z,21.59
2019-04-16T14:27:55.483Z,21.61
2019-04-16T14:29:54.885Z,21.65
2019-04-16T14:31:56.504Z,21.67
2019-04-16T14:34:04.564Z,21.68
2019-04-16T14:36:06.339Z,21.65
2019-04-16T14:38:07.830Z,21.64
2019-04-16T14:40:21.145Z,21.63
2019-04-16T14:42:23.147Z,21.62
2019-04-16T14:44:24.440Z,21.61
2019-04-16T14:46:28.413Z,21.59
2019-04-16T14:48:27.724Z,21.56
2019-04-16T14:50:32.914Z,21.55
2019-04-16T14:52:31.050Z,21.57
2019-04-16T14:54:32.661Z,21.58
2019-04-16T14:56:34.878Z,21.58
2019-04-16T14:58:40.044Z,21.28
2019-04-16T15:00:43.632Z,21.51
2019-04-16T15:02:47.071Z,21.47
2019-04-16T15:04:57.064Z,21.45
2019-04-16T15:06:56.010Z,21.42
2019-04-16T15:08:57.640Z,21.11
2019-04-16T15:11:17.173Z,21.36
2019-04-16T15:13:18.781Z,21.32
2019-04-16T15:15:23.012Z,21.28
2019-04-16T15:17:29.456Z,21.26
2019-04-16T15:19:30.045Z,21.22
2019-04-16T15:21:34.374Z,21.10
2019-04-16T15:23:53.857Z,21.16
2019-04-16T15:26:00.291Z,21.14
2019-04-16T15:28:04.724Z,21.10
2019-04-16T15:30:09.133Z,21.06
2019-04-16T15:32:11.572Z,21.04
2019-04-16T15:34:13.151Z,21.02
2019-04-16T15:36:19.521Z,20.99
2019-04-16T15:38:34.050Z,20.96
2019-04-16T15:40:39.384Z,20.91
2019-04-16T15:42:39.736Z,20.89
2019-04-16T15:44:57.409Z,20.87
2019-04-16T15:47:03.432Z,20.84
2019-04-16T15:49:07.057Z,20.81
2019-04-16T15:51:15.240Z,20.79
2019-04-16T15:53:16.767Z,20.76
2019-04-16T15:55:24.487Z,20.73
2019-04-16T15:57:31.463Z,20.69
2019-04-16T15:59:37.942Z,20.62
2019-04-16T16:01:45.380Z,20.58
2019-04-16T16:03:52.690Z,20.54
2019-04-16T16:06:09.161Z,20.51
2019-04-16T16:08:10.761Z,20.54
2019-04-16T16:10:14.162Z,20.56
2019-04-16T16:12:14.976Z,20.58
2019-04-16T16:14:16.591Z,20.62
2019-04-16T16:16:19.030Z,20.64
2019-04-16T16:18:19.876Z,20.66
2019-04-16T16:20:21.966Z,20.65
2019-04-16T16:22:23.582Z,20.62
2019-04-16T16:24:25.188Z,20.59
2019-04-16T16:26:26.788Z,20.54
2019-04-16T16:28:28.376Z,20.49
2019-04-16T16:30:29.984Z,20.46
2019-04-16T16:32:31.636Z,20.41
2019-04-16T16:34:33.225Z,20.38
2019-04-16T16:36:36.400Z,20.35
2019-04-16T16:38:36.468Z,20.33
2019-04-16T16:40:38.081Z,20.30
2019-04-16T16:42:39.668Z,20.27
2019-04-16T16:44:41.308Z,20.24
2019-04-16T16:46:56.018Z,20.22
2019-04-16T16:48:44.622Z,20.24
2019-04-16T16:50:46.206Z,20.26
2019-04-16T16:52:49.960Z,20.28
2019-04-16T16:54:49.479Z,20.33
2019-04-16T16:57:08.819Z,20.38
2019-04-16T16:59:26.199Z,20.41
2019-04-16T17:01:38.101Z,20.39
2019-04-16T17:03:43.408Z,20.35
2019-04-16T17:05:45.006Z,20.30
2019-04-16T17:07:46.605Z,20.29
2019-04-16T17:09:48.178Z,20.25
2019-04-16T17:11:49.763Z,20.22
2019-04-16T17:13:51.352Z,20.19
2019-04-16T17:15:53.080Z,20.17
2019-04-16T17:17:54.983Z,20.15
2019-04-16T17:19:56.404Z,20.15
2019-04-16T17:21:58.015Z,20.17
2019-04-16T17:23:59.978Z,20.19
2019-04-16T17:26:01.330Z,20.16
2019-04-16T17:28:02.944Z,20.16
2019-04-16T17:30:04.603Z,20.13
2019-04-16T17:32:06.224Z,20.10
2019-04-16T17:34:07.827Z,20.06
2019-04-16T17:36:09.466Z,20.03
2019-04-16T17:38:11.079Z,20.00
2019-04-16T17:40:16.261Z,20.00
2019-04-16T17:42:19.244Z,20.04
2019-04-16T17:44:27.530Z,20.15
2019-04-16T17:46:44.827Z,20.25
2019-04-16T17:48:50.336Z,20.41
2019-04-16T17:50:52.060Z,20.48
2019-04-16T17:53:09.341Z,20.57
2019-04-16T17:55:31.633Z,20.65
2019-04-16T17:57:35.025Z,20.70
2019-04-16T17:59:52.641Z,20.76
2019-04-16T18:02:03.866Z,20.78
2019-04-16T18:04:11.629Z,20.81
2019-04-16T18:06:13.504Z,20.84
2019-04-16T18:08:19.896Z,20.84
2019-04-16T18:10:26.697Z,20.80
2019-04-16T18:12:43.364Z,20.76
2019-04-16T18:14:50.830Z,20.67
2019-04-16T18:16:54.312Z,20.70
2019-04-16T18:18:59.687Z,20.75
2019-04-16T18:21:01.282Z,20.78
2019-04-16T18:23:02.887Z,20.83
2019-04-16T18:25:10.337Z,20.83
2019-04-16T18:27:13.833Z,20.90
2019-04-16T18:29:19.124Z,20.91
2019-04-16T18:31:24.538Z,20.92
2019-04-16T18:33:28.124Z,20.94
2019-04-16T18:35:29.728Z,20.95
2019-04-16T18:37:49.610Z,20.92
2019-04-16T18:39:52.459Z,20.94
2019-04-16T18:41:57.735Z,20.92
2019-04-16T18:44:05.076Z,20.81
2019-04-16T18:46:21.596Z,20.89
2019-04-16T18:48:25.812Z,20.84
2019-04-16T18:50:28.427Z,20.64
2019-04-16T18:52:30.831Z,20.74
2019-04-16T18:54:32.607Z,20.69
2019-04-16T18:56:35.032Z,20.67
2019-04-16T18:58:36.686Z,20.70
2019-04-16T19:00:38.875Z,20.74
2019-04-16T19:02:42.194Z,20.76
2019-04-16T19:04:42.996Z,20.81
2019-04-16T19:06:44.580Z,20.88
2019-04-16T19:08:46.283Z,20.90
2019-04-16T19:10:47.917Z,20.92
2019-04-16T19:12:49.599Z,20.94
2019-04-16T19:14:51.184Z,20.95
2019-04-16T19:16:53.388Z,20.98
2019-04-16T19:18:55.270Z,20.99
2019-04-16T19:20:57.224Z,20.98
2019-04-16T19:22:59.499Z,21.01
2019-04-16T19:25:01.209Z,21.04
2019-04-16T19:27:05.332Z,21.03
2019-04-16T19:29:13.371Z,21.04
2019-04-16T19:31:08.748Z,21.07
2019-04-16T19:33:10.358Z,21.10
2019-04-16T19:35:17.613Z,21.08
2019-04-16T19:37:14.920Z,21.09
2019-04-16T19:39:16.536Z,21.12
2019-04-16T19:41:23.373Z,21.09
2019-04-16T19:43:19.796Z,21.06
2019-04-16T19:45:21.405Z,21.08
2019-04-16T19:47:23.267Z,21.08
2019-04-16T19:49:24.655Z,21.08
2019-04-16T19:51:26.276Z,21.11
2019-04-16T19:53:27.850Z,21.10
2019-04-16T19:55:29.439Z,21.09
2019-04-16T19:57:31.049Z,21.10
2019-04-16T19:59:32.664Z,21.10
2019-04-16T20:01:34.308Z,21.09
2019-04-16T20:03:35.896Z,21.11
2019-04-16T20:05:37.495Z,21.12
2019-04-16T20:07:39.088Z,21.13
2019-04-16T20:09:40.674Z,21.15
2019-04-16T20:11:42.264Z,21.17
2019-04-16T20:13:43.864Z,21.16
2019-04-16T20:15:45.568Z,21.15
2019-04-16T20:17:47.236Z,21.14
2019-04-16T20:19:54.431Z,21.11
2019-04-16T20:21:56.044Z,21.05
2019-04-16T20:23:57.739Z,20.98
2019-04-16T20:26:00.907Z,20.90
2019-04-16T20:28:01.068Z,20.84
2019-04-16T20:30:02.672Z,20.80
2019-04-16T20:32:04.278Z,20.77
2019-04-16T20:34:06.051Z,20.73
2019-04-16T20:36:07.550Z,20.41
2019-04-16T20:38:09.157Z,20.60
2019-04-16T20:40:10.738Z,20.54
2019-04-16T20:42:12.321Z,20.49
2019-04-16T20:44:13.972Z,20.44
2019-04-16T20:46:15.550Z,20.40
2019-04-16T20:48:17.168Z,20.35
2019-04-16T20:50:20.955Z,20.31
2019-04-16T20:52:20.367Z,20.27
2019-04-16T20:54:21.983Z,20.22
2019-04-16T20:56:23.554Z,20.20
2019-04-16T20:58:30.665Z,20.15
2019-04-16T21:00:30.476Z,20.00
2019-04-16T21:02:32.116Z,20.08
2019-04-16T21:04:33.724Z,20.61
2019-04-16T21:06:40.678Z,20.90
2019-04-16T21:08:36.967Z,21.08
2019-04-16T21:10:38.580Z,21.42
2019-04-16T21:12:45.072Z,21.58
2019-04-16T21:14:41.786Z,21.65
2019-04-16T21:16:43.444Z,21.77
2019-04-16T21:18:45.041Z,21.68
2019-04-16T21:20:50.847Z,21.60
2019-04-16T21:22:48.280Z,21.60
2019-04-16T21:24:49.870Z,21.62
2019-04-16T21:26:51.907Z,21.65
2019-04-16T21:28:55.036Z,21.70
2019-04-16T21:30:57.371Z,21.73
2019-04-16T21:33:04.904Z,21.81
2019-04-16T21:35:08.154Z,21.88
2019-04-16T21:37:15.520Z,21.97
2019-04-16T21:39:19.712Z,22.17
2019-04-16T21:41:21.300Z,22.20
2019-04-16T21:43:22.934Z,22.18
2019-04-16T21:45:24.556Z,22.17
2019-04-16T21:47:26.142Z,22.26
2019-04-16T21:49:38.580Z,22.26
2019-04-16T21:51:30.136Z,22.17
2019-04-16T21:53:31.730Z,22.14
2019-04-16T21:55:35.511Z,22.23
2019-04-16T21:57:35.048Z,22.23
2019-04-16T21:59:36.680Z,22.26
2019-04-16T22:01:42.078Z,22.24
2019-04-16T22:03:43.702Z,22.28
2019-04-16T22:05:48.035Z,22.26
2019-04-16T22:07:47.000Z,21.96
2019-04-16T22:09:48.629Z,22.18
2019-04-16T22:11:50.212Z,22.22
2019-04-16T22:13:51.799Z,22.18
2019-04-16T22:15:53.764Z,22.21
2019-04-16T22:17:55.042Z,22.32
2019-04-16T22:20:01.536Z,21.95
2019-04-16T22:21:58.499Z,21.76
2019-04-16T22:24:00.052Z,21.76
2019-04-16T22:26:03.004Z,21.72
2019-04-16T22:28:03.300Z,21.66
2019-04-16T22:30:04.904Z,21.59
2019-04-16T22:32:06.492Z,21.54
2019-04-16T22:34:08.076Z,21.50
2019-04-16T22:36:09.686Z,21.48
2019-04-16T22:38:14.297Z,21.44
2019-04-16T22:40:22.538Z,21.41
2019-04-16T22:42:21.152Z,21.38
2019-04-16T22:44:42.471Z,21.35
2019-04-16T22:46:47.843Z,21.30
2019-04-16T22:48:54.416Z,21.27
2019-04-16T22:50:56.002Z,21.23
2019-04-16T22:52:57.679Z,21.22
2019-04-16T22:54:59.269Z,21.21
2019-04-16T22:57:03.506Z,21.22
2019-04-16T22:59:06.651Z,21.24
2019-04-16T23:01:06.688Z,21.22
2019-04-16T23:03:08.291Z,21.19
2019-04-16T23:05:09.882Z,21.15
2019-04-16T23:07:11.755Z,21.12
2019-04-16T23:09:17.039Z,21.11
2019-04-16T23:11:15.035Z,21.10
2019-04-16T23:13:16.642Z,21.09
2019-04-16T23:15:18.252Z,21.08
2019-04-16T23:17:19.857Z,21.04
2019-04-16T23:19:21.450Z,21.03
2019-04-16T23:21:23.054Z,21.00
2019-04-16T23:23:24.691Z,21.06
2019-04-16T23:25:27.449Z,21.14
2019-04-16T23:27:27.946Z,21.32
2019-04-16T23:29:29.805Z,21.31
2019-04-16T23:31:31.382Z,21.28
2019-04-16T23:33:33.582Z,21.27
2019-04-16T23:35:34.936Z,21.24
2019-04-16T23:37:36.521Z,21.21
2019-04-16T23:39:38.159Z,21.17
2019-04-16T23:41:39.756Z,21.12
2019-04-16T23:44:00.190Z,21.13
2019-04-16T23:46:07.310Z,21.14
2019-04-16T23:48:15.706Z,21.15
2019-04-16T23:50:44.961Z,21.18
2019-04-16T23:52:35.485Z,21.23
2019-04-16T23:54:37.213Z,21.27
2019-04-16T23:56:55.513Z,21.25
2019-04-16T23:59:02.606Z,21.24
